createdAt,value
2018-07-22T00:02:05.482Z,11.50
2018-07-22T00:07:10.321Z,11.80
2018-07-22T00:12:15.045Z,13.40
2018-07-22T00:17:19.781Z,11.50
2018-07-22T00:22:24.589Z,11.63
2018-07-22T00:27:29.423Z,12.20
2018-07-22T00:32:34.179Z,12.07
2018-07-22T00:37:39.365Z,11.30
2018-07-22T00:42:43.773Z,12.23
2018-07-22T00:47:48.620Z,11.50
2018-07-22T00:52:53.540Z,10.43
2018-07-22T00:57:58.213Z,10.93
2018-07-22T01:03:02.907Z,10.73
2018-07-22T01:08:07.612Z,11.00
2018-07-22T01:13:12.498Z,11.00
2018-07-22T01:18:17.192Z,12.20
2018-07-22T01:23:21.983Z,12.10
2018-07-22T01:28:26.722Z,11.90
2018-07-22T01:33:31.444Z,10.70
2018-07-22T01:38:35.977Z,9.87
2018-07-22T01:43:40.642Z,11.30
2018-07-22T01:48:45.373Z,10.93
2018-07-22T01:53:50.140Z,9.63
2018-07-22T01:58:54.860Z,9.33
2018-07-22T02:03:59.606Z,10.43
2018-07-22T02:09:05.389Z,10.40
2018-07-22T02:14:10.166Z,10.40
2018-07-22T02:19:14.894Z,11.10
2018-07-22T02:24:19.620Z,10.53
2018-07-22T02:29:24.252Z,10.87
2018-07-22T02:34:28.967Z,9.87
2018-07-22T02:39:33.745Z,11.07
2018-07-22T02:44:38.420Z,10.40
2018-07-22T02:49:43.272Z,10.83
2018-07-22T02:54:48.082Z,10.70
2018-07-22T02:59:53.005Z,9.40
2018-07-22T03:04:57.701Z,10.57
2018-07-22T03:10:02.514Z,10.10
2018-07-22T03:15:07.436Z,9.67
2018-07-22T03:20:12.264Z,9.30
2018-07-22T03:25:16.928Z,10.43
2018-07-22T03:30:21.793Z,10.80
2018-07-22T03:35:26.421Z,10.67
2018-07-22T03:40:31.287Z,9.43
2018-07-22T03:45:35.933Z,10.27
2018-07-22T03:50:40.672Z,10.97
2018-07-22T03:55:45.399Z,10.33
2018-07-22T04:00:50.249Z,12.00
2018-07-22T04:05:55.065Z,12.23
2018-07-22T04:10:59.953Z,11.93
2018-07-22T04:16:04.687Z,12.47
2018-07-22T04:21:09.425Z,11.63
2018-07-22T04:26:14.151Z,11.70
2018-07-22T04:31:18.913Z,13.23
2018-07-22T04:36:23.626Z,13.97
2018-07-22T04:41:28.359Z,14.23
2018-07-22T04:46:33.356Z,14.30
2018-07-22T04:51:38.141Z,15.23
2018-07-22T04:56:42.945Z,13.93
2018-07-22T05:01:47.621Z,13.90
2018-07-22T05:06:52.337Z,13.03
2018-07-22T05:11:57.120Z,13.43
2018-07-22T05:17:01.852Z,12.43
2018-07-22T05:22:06.727Z,12.67
2018-07-22T05:27:11.573Z,12.27
2018-07-22T05:32:16.283Z,13.57
2018-07-22T05:37:21.047Z,13.07
2018-07-22T05:42:25.731Z,12.70
2018-07-22T05:47:30.434Z,12.03
2018-07-22T05:52:35.357Z,12.60
2018-07-22T05:57:40.249Z,12.77
2018-07-22T06:02:45.046Z,14.03
2018-07-22T06:07:49.971Z,13.63
2018-07-22T06:12:54.746Z,14.10
2018-07-22T06:17:59.590Z,13.43
2018-07-22T06:23:04.397Z,12.73
2018-07-22T06:28:09.132Z,12.80
2018-07-22T06:33:13.899Z,12.23
2018-07-22T06:38:18.738Z,12.03
2018-07-22T06:43:23.456Z,12.60
2018-07-22T06:48:28.245Z,14.13
2018-07-22T06:53:33.051Z,12.40
2018-07-22T06:58:37.756Z,12.60
2018-07-22T07:03:42.525Z,11.80
2018-07-22T07:08:47.282Z,11.80
2018-07-22T07:13:52.014Z,11.23
2018-07-22T07:18:56.763Z,11.67
2018-07-22T07:24:01.246Z,12.07
2018-07-22T07:29:06.037Z,10.97
2018-07-22T07:34:10.788Z,11.27
2018-07-22T07:39:15.506Z,9.97
2018-07-22T07:44:20.433Z,10.87
2018-07-22T07:49:25.103Z,10.80
2018-07-22T07:54:30.278Z,9.50
2018-07-22T07:59:34.719Z,10.47
2018-07-22T08:04:39.484Z,11.07
2018-07-22T08:09:44.256Z,10.20
2018-07-22T08:14:49.052Z,8.40
2018-07-22T08:19:53.899Z,7.97
2018-07-22T08:24:58.690Z,6.47
2018-07-22T08:30:03.610Z,6.77
2018-07-22T08:35:08.364Z,6.80
2018-07-22T08:40:13.144Z,6.63
2018-07-22T08:45:17.948Z,6.20
2018-07-22T08:50:22.786Z,7.00
2018-07-22T08:55:27.547Z,7.07
2018-07-22T09:00:32.265Z,6.90
2018-07-22T09:05:36.963Z,6.13
2018-07-22T09:10:41.686Z,6.63
2018-07-22T09:15:46.634Z,6.50
2018-07-22T09:20:51.383Z,6.47
2018-07-22T09:25:56.257Z,6.67
2018-07-22T09:31:01.130Z,7.40
2018-07-22T09:36:06.008Z,6.43
2018-07-22T09:41:10.694Z,6.17
2018-07-22T09:46:15.565Z,6.50
2018-07-22T09:51:20.345Z,7.80
2018-07-22T09:56:31.733Z,6.87
2018-07-22T10:01:36.609Z,6.77
2018-07-22T10:06:41.460Z,5.67
2018-07-22T10:11:46.305Z,6.63
2018-07-22T10:16:51.043Z,5.93
2018-07-22T10:21:55.895Z,6.57
2018-07-22T10:27:00.625Z,5.67
2018-07-22T10:32:05.569Z,6.00
2018-07-22T10:37:10.327Z,5.87
2018-07-22T10:42:15.074Z,5.93
2018-07-22T10:47:19.986Z,6.57
2018-07-22T10:52:24.892Z,6.30
2018-07-22T10:57:29.757Z,5.87
2018-07-22T11:02:34.498Z,5.97
2018-07-22T11:07:39.421Z,6.80
2018-07-22T11:12:44.221Z,6.43
2018-07-22T11:17:49.062Z,6.30
2018-07-22T11:22:54.873Z,6.27
2018-07-22T11:27:59.604Z,5.83
2018-07-22T11:33:04.487Z,6.40
2018-07-22T11:38:09.370Z,6.53
2018-07-22T11:43:14.166Z,6.30
2018-07-22T11:48:18.893Z,6.00
2018-07-22T11:53:23.816Z,6.40
2018-07-22T11:58:28.573Z,6.70
2018-07-22T12:03:33.319Z,6.10
2018-07-22T12:08:38.126Z,6.03
2018-07-22T12:13:42.880Z,6.73
2018-07-22T12:18:47.595Z,7.47
2018-07-22T12:23:52.294Z,5.77
2018-07-22T12:28:57.120Z,6.17
2018-07-22T12:34:01.867Z,6.40
2018-07-22T12:39:13.962Z,6.97
2018-07-22T12:44:18.833Z,6.90
2018-07-22T12:49:23.802Z,6.80
2018-07-22T12:54:29.477Z,7.07
2018-07-22T12:59:34.368Z,6.90
2018-07-22T13:04:39.081Z,8.47
2018-07-22T13:09:44.149Z,7.40
2018-07-22T13:14:48.899Z,6.67
2018-07-22T13:19:54.689Z,7.43
2018-07-22T13:24:59.645Z,6.37
2018-07-22T13:30:05.281Z,6.33
2018-07-22T13:35:10.225Z,7.37
2018-07-22T13:40:14.965Z,8.27
2018-07-22T13:45:19.735Z,7.83
2018-07-22T13:50:24.493Z,8.00
2018-07-22T13:55:29.354Z,9.67
2018-07-22T14:00:34.418Z,7.33
2018-07-22T14:05:39.276Z,8.03
2018-07-22T14:10:44.129Z,8.53
2018-07-22T14:15:49.022Z,8.03
2018-07-22T14:20:53.750Z,7.50
2018-07-22T14:25:58.584Z,8.20
2018-07-22T14:31:03.367Z,8.43
2018-07-22T14:36:08.145Z,7.53
2018-07-22T14:41:12.925Z,7.10
2018-07-22T14:46:17.780Z,7.33
2018-07-22T14:51:22.597Z,7.00
2018-07-22T14:56:27.521Z,8.07
2018-07-22T15:01:32.338Z,8.37
2018-07-22T15:06:37.114Z,7.40
2018-07-22T15:11:42.574Z,7.33
2018-07-22T15:16:47.364Z,7.97
2018-07-22T15:21:52.191Z,9.40
2018-07-22T15:26:57.276Z,9.20
2018-07-22T15:32:02.217Z,7.97
2018-07-22T15:37:07.210Z,7.93
2018-07-22T15:42:12.033Z,7.50
2018-07-22T15:47:16.784Z,7.77
2018-07-22T15:52:21.568Z,11.43
2018-07-22T15:57:26.643Z,7.67
2018-07-22T16:02:31.528Z,8.33
2018-07-22T16:07:36.687Z,11.80
2018-07-22T16:12:41.708Z,7.73
2018-07-22T16:17:46.418Z,8.60
2018-07-22T16:22:51.210Z,7.80
2018-07-22T16:27:56.252Z,7.60
2018-07-22T16:33:00.947Z,7.27
2018-07-22T16:38:05.732Z,7.37
2018-07-22T16:43:10.523Z,7.07
2018-07-22T16:48:15.657Z,8.30
2018-07-22T16:53:20.446Z,8.50
2018-07-22T16:58:25.320Z,8.63
2018-07-22T17:03:30.066Z,15.80
2018-07-22T17:08:34.923Z,16.33
2018-07-22T17:13:39.682Z,16.17
2018-07-22T17:18:45.007Z,10.70
2018-07-22T17:23:50.319Z,11.77
2018-07-22T17:28:55.304Z,11.90
2018-07-22T17:34:00.051Z,11.20
2018-07-22T17:39:07.260Z,10.70
2018-07-22T17:44:12.166Z,12.37
2018-07-22T17:49:16.879Z,11.40
2018-07-22T17:54:21.643Z,12.60
2018-07-22T17:59:26.979Z,13.93
2018-07-22T18:04:31.716Z,11.70
2018-07-22T18:09:36.525Z,11.47
2018-07-22T18:14:41.292Z,13.43
2018-07-22T18:19:46.192Z,12.00
2018-07-22T18:24:50.962Z,11.07
2018-07-22T18:29:55.776Z,12.70
2018-07-22T18:35:00.767Z,12.63
2018-07-22T18:40:05.933Z,12.90
2018-07-22T18:45:11.592Z,14.83
2018-07-22T18:50:16.640Z,15.20
2018-07-22T18:55:22.145Z,13.90
2018-07-22T19:00:26.988Z,14.63
2018-07-22T19:05:32.340Z,16.23
2018-07-22T19:10:38.399Z,14.13
2018-07-22T19:15:43.683Z,15.80
2018-07-22T19:20:48.673Z,15.40
2018-07-22T19:25:54.627Z,16.20
2018-07-22T19:30:59.520Z,16.03
2018-07-22T19:36:04.528Z,17.37
2018-07-22T19:41:09.376Z,17.77
2018-07-22T19:46:14.213Z,18.10
2018-07-22T19:51:19.231Z,17.00
2018-07-22T19:56:24.160Z,16.50
2018-07-22T20:01:28.946Z,16.03
2018-07-22T20:06:33.824Z,17.07
2018-07-22T20:11:38.586Z,18.67
2018-07-22T20:16:43.364Z,17.03
2018-07-22T20:21:48.440Z,17.27
2018-07-22T20:26:54.267Z,16.50
2018-07-22T20:31:59.149Z,17.60
2018-07-22T20:37:03.909Z,17.73
2018-07-22T20:42:08.960Z,17.87
2018-07-22T20:47:13.795Z,17.50
2018-07-22T20:52:18.633Z,16.90
2018-07-22T20:57:23.525Z,17.53
2018-07-22T21:02:28.316Z,17.77
2018-07-22T21:07:33.105Z,19.03
2018-07-22T21:13:25.914Z,20.03
2018-07-22T21:18:30.669Z,19.23
2018-07-22T21:23:35.518Z,19.10
2018-07-22T21:28:40.376Z,18.27
2018-07-22T21:33:45.140Z,19.00
2018-07-22T21:38:49.964Z,19.17
2018-07-22T21:43:54.717Z,19.20
2018-07-22T21:48:59.381Z,20.27
2018-07-22T21:54:04.105Z,19.37
2018-07-22T21:59:09.057Z,19.70
2018-07-22T22:04:13.889Z,18.27
2018-07-22T22:09:18.670Z,18.00
2018-07-22T22:14:23.616Z,18.80
2018-07-22T22:19:28.448Z,20.00
2018-07-22T22:24:33.220Z,19.57
2018-07-22T22:29:38.078Z,18.50
2018-07-22T22:34:42.857Z,21.47
2018-07-22T22:39:47.316Z,19.70
2018-07-22T22:44:52.025Z,19.03
2018-07-22T22:49:56.778Z,18.87
2018-07-22T22:55:01.573Z,21.50
2018-07-22T23:00:07.588Z,19.90
2018-07-22T23:05:12.396Z,19.67
2018-07-22T23:10:17.176Z,20.60
2018-07-22T23:15:22.074Z,22.07
2018-07-22T23:20:26.843Z,21.13
2018-07-22T23:25:31.638Z,20.47
2018-07-22T23:30:36.398Z,21.23
2018-07-22T23:35:41.076Z,21.00
2018-07-22T23:40:45.769Z,21.00
2018-07-22T23:45:50.492Z,19.10
2018-07-22T23:50:55.274Z,18.73
2018-07-22T23:56:00.026Z,20.63
